Terminal Aerodrome Forecast
Issued by NWS Louisville, KY

Home | Current Version | Previous Version | Text Only | Print | Product List | Glossary On
Versions: 1 2 3 4 5 6 7 8 9 10 11 12 13 14 15 16 17
000
FTUS43 KLMK 262300
TAFBWG
TAF
KBWG 262333Z 2700/2724 20006KT P6SM FEW050 SCT250
     FM270900 21005KT 4SM BR SCT010
     FM271500 22010G15KT P6SM SCT040
     FM272000 22010G15KT P6SM VCTS BKN040CB=

USA.gov is the U.S. government's official web portal to all federal, state and local government web resources and services.